Pagina principale
METAR-TAF:

METAR-TAF

Aeroporti :

Sankt Moritz, Svizzera

Aeroporto d'Engadina

latitudine: 46-32-03N, longitudine: 9-53-03E, altezza: 1707 m

Osservazione

Il bollettino è stato emesso 25 minuti fa, alle 06:20 UTC
Vento 9 kt da nord/nord-est, variando fra nord e nord-est
Temperature 6°C
Umidità 93%
Pressione 1012 hPa
Visibilità 10 km o più
Poco nuvoloso ad un'altezza di 4000 ft
Nuvoloso ad un'altezza di 5000 ft
pioggia debole

METAR: LSZS 260620Z 02009KT 350V050 9999 -RA FEW040 BKN050 06/05 Q1012 RMK B

Ora: 08:45 (06:45 UTC)

Previsione

Il bollettino è stato emesso 1 ora e 20 minuti fa, alle 05:25 UTC
Previsione valida dal 26 alle 06 UTC al 26 alle 15 UTC
Vento 3 kt da direzioni variabili
Visibilità 10 km o più
Nuvoloso ad un'altezza di 4000 ft
pioggia debole
Evoluzione graduale
dal 26 alle 08 UTC al 26 alle 10 UTC
Vento 9 kt da nord

TAF: LSZS 260525Z 2606/2615 VRB03KT 9999 -RA BKN040 TX10/2613Z BECMG 2608/2610 01009KT

Osservazioni e previsioni meteorologiche di più di 4000 aeroporti (messaggi METAR e TAF).

Le stazioni disponibili sono rappresentate dai dischi gialli e rossi sulla carta.

Puntare il mouse per vedere il nome della stazione.

Clicca sopra per visualizzare le osservazioni e previsioni meteorologiche.

Per cambiare la mappa : fare clic sui pulsanti verdi con una croce nera per ingrandire, il pulsante verde con un trattino per diminuire, o sulla freccia verde per le mappe adiacenti.


METAR-TAF: